sensor_id;sensor_type;location;lat;lon;timestamp;P1;durP1;ratioP1;P2;durP2;ratioP2
24644;SDS011;12780;45.502;9.146;2023-04-01T00:01:09;15.38;;;9.23;;
24644;SDS011;12780;45.502;9.146;2023-04-01T00:03:38;16.90;;;9.20;;
24644;SDS011;12780;45.502;9.146;2023-04-01T00:06:05;13.63;;;9.50;;
24644;SDS011;12780;45.502;9.146;2023-04-01T00:08:31;16.58;;;9.20;;
24644;SDS011;12780;45.502;9.146;2023-04-01T00:10:56;17.80;;;9.40;;
24644;SDS011;12780;45.502;9.146;2023-04-01T00:13:23;13.38;;;9.00;;
24644;SDS011;12780;45.502;9.146;2023-04-01T00:15:50;15.32;;;9.23;;
24644;SDS011;12780;45.502;9.146;2023-04-01T00:18:16;17.33;;;9.07;;
24644;SDS011;12780;45.502;9.146;2023-04-01T00:20:45;18.25;;;9.27;;
24644;SDS011;12780;45.502;9.146;2023-04-01T00:23:12;16.10;;;9.38;;
24644;SDS011;12780;45.502;9.146;2023-04-01T00:25:38;18.75;;;9.23;;
24644;SDS011;12780;45.502;9.146;2023-04-01T00:28:03;16.45;;;9.35;;
24644;SDS011;12780;45.502;9.146;2023-04-01T00:30:29;20.38;;;9.05;;
24644;SDS011;12780;45.502;9.146;2023-04-01T00:32:54;18.52;;;8.98;;
24644;SDS011;12780;45.502;9.146;2023-04-01T00:35:20;20.02;;;9.82;;
24644;SDS011;12780;45.502;9.146;2023-04-01T00:37:47;17.27;;;8.82;;
24644;SDS011;12780;45.502;9.146;2023-04-01T00:40:23;17.17;;;9.18;;
24644;SDS011;12780;45.502;9.146;2023-04-01T00:42:57;14.50;;;8.77;;
24644;SDS011;12780;45.502;9.146;2023-04-01T00:45:29;18.67;;;9.48;;
24644;SDS011;12780;45.502;9.146;2023-04-01T00:48:02;15.18;;;8.75;;
24644;SDS011;12780;45.502;9.146;2023-04-01T00:50:32;15.85;;;7.88;;
24644;SDS011;12780;45.502;9.146;2023-04-01T00:52:59;15.20;;;8.80;;
24644;SDS011;12780;45.502;9.146;2023-04-01T00:55:26;14.50;;;7.97;;
24644;SDS011;12780;45.502;9.146;2023-04-01T00:57:54;14.13;;;8.52;;
24644;SDS011;12780;45.502;9.146;2023-04-01T01:00:22;18.65;;;8.45;;
24644;SDS011;12780;45.502;9.146;2023-04-01T01:02:47;13.70;;;7.80;;
24644;SDS011;12780;45.502;9.146;2023-04-01T01:05:16;15.13;;;8.43;;
24644;SDS011;12780;45.502;9.146;2023-04-01T01:10:38;13.38;;;8.13;;
24644;SDS011;12780;45.502;9.146;2023-04-01T01:13:11;19.35;;;9.05;;
24644;SDS011;12780;45.502;9.146;2023-04-01T01:24:22;17.77;;;8.45;;
24644;SDS011;12780;45.502;9.146;2023-04-01T01:27:18;11.88;;;6.65;;
24644;SDS011;12780;45.502;9.146;2023-04-01T01:30:00;14.00;;;6.57;;
24644;SDS011;12780;45.502;9.146;2023-04-01T01:35:26;13.05;;;7.95;;
24644;SDS011;12780;45.502;9.146;2023-04-01T01:38:00;13.85;;;8.18;;
24644;SDS011;12780;45.502;9.146;2023-04-01T01:40:31;11.27;;;7.70;;
24644;SDS011;12780;45.502;9.146;2023-04-01T01:42:59;10.73;;;7.22;;
24644;SDS011;12780;45.502;9.146;2023-04-01T01:45:30;14.70;;;7.88;;
24644;SDS011;12780;45.502;9.146;2023-04-01T01:47:59;11.02;;;7.10;;
24644;SDS011;12780;45.502;9.146;2023-04-01T01:50:26;10.95;;;6.53;;
24644;SDS011;12780;45.502;9.146;2023-04-01T01:53:03;12.70;;;6.60;;
24644;SDS011;12780;45.502;9.146;2023-04-01T01:57:59;8.73;;;6.20;;
24644;SDS011;12780;45.502;9.146;2023-04-01T02:00:29;11.40;;;6.05;;
24644;SDS011;12780;45.502;9.146;2023-04-01T02:02:55;12.18;;;5.90;;
24644;SDS011;12780;45.502;9.146;2023-04-01T02:05:24;10.70;;;5.95;;
24644;SDS011;12780;45.502;9.146;2023-04-01T02:08:13;7.90;;;5.38;;
24644;SDS011;12780;45.502;9.146;2023-04-01T02:10:45;9.30;;;5.60;;
24644;SDS011;12780;45.502;9.146;2023-04-01T02:13:17;9.43;;;5.05;;
24644;SDS011;12780;45.502;9.146;2023-04-01T02:15:51;6.97;;;5.05;;
24644;SDS011;12780;45.502;9.146;2023-04-01T02:18:21;8.60;;;5.13;;
24644;SDS011;12780;45.502;9.146;2023-04-01T02:20:47;7.20;;;5.18;;
24644;SDS011;12780;45.502;9.146;2023-04-01T02:23:14;8.93;;;4.97;;
24644;SDS011;12780;45.502;9.146;2023-04-01T02:25:40;8.18;;;5.10;;
24644;SDS011;12780;45.502;9.146;2023-04-01T02:28:08;8.65;;;5.30;;
24644;SDS011;12780;45.502;9.146;2023-04-01T02:30:35;7.72;;;5.10;;
24644;SDS011;12780;45.502;9.146;2023-04-01T02:33:03;6.95;;;4.88;;
24644;SDS011;12780;45.502;9.146;2023-04-01T02:35:30;8.18;;;5.07;;
24644;SDS011;12780;45.502;9.146;2023-04-01T02:38:01;6.88;;;4.68;;
24644;SDS011;12780;45.502;9.146;2023-04-01T02:40:27;7.15;;;4.72;;
24644;SDS011;12780;45.502;9.146;2023-04-01T02:42:53;5.90;;;4.38;;
24644;SDS011;12780;45.502;9.146;2023-04-01T02:45:18;8.43;;;5.07;;
24644;SDS011;12780;45.502;9.146;2023-04-01T02:47:44;7.57;;;4.82;;
24644;SDS011;12780;45.502;9.146;2023-04-01T02:50:10;7.75;;;4.60;;
24644;SDS011;12780;45.502;9.146;2023-04-01T02:52:35;8.60;;;5.28;;
24644;SDS011;12780;45.502;9.146;2023-04-01T02:55:01;6.85;;;4.55;;
24644;SDS011;12780;45.502;9.146;2023-04-01T02:57:27;11.23;;;4.68;;
24644;SDS011;12780;45.502;9.146;2023-04-01T02:59:53;10.32;;;4.82;;
24644;SDS011;12780;45.502;9.146;2023-04-01T03:02:18;7.28;;;5.18;;
24644;SDS011;12780;45.502;9.146;2023-04-01T03:04:44;8.82;;;5.05;;
24644;SDS011;12780;45.502;9.146;2023-04-01T03:07:10;7.45;;;5.05;;
24644;SDS011;12780;45.502;9.146;2023-04-01T03:09:36;8.77;;;4.80;;
24644;SDS011;12780;45.502;9.146;2023-04-01T03:12:02;9.30;;;4.82;;
24644;SDS011;12780;45.502;9.146;2023-04-01T03:14:28;7.60;;;4.63;;
24644;SDS011;12780;45.502;9.146;2023-04-01T03:16:53;13.75;;;6.43;;
24644;SDS011;12780;45.502;9.146;2023-04-01T03:19:19;10.18;;;5.63;;
24644;SDS011;12780;45.502;9.146;2023-04-01T03:21:45;10.07;;;5.22;;
24644;SDS011;12780;45.502;9.146;2023-04-01T03:24:11;8.82;;;5.35;;
24644;SDS011;12780;45.502;9.146;2023-04-01T03:26:36;9.02;;;5.50;;
24644;SDS011;12780;45.502;9.146;2023-04-01T03:29:02;8.88;;;5.63;;
24644;SDS011;12780;45.502;9.146;2023-04-01T03:31:27;9.93;;;5.70;;
24644;SDS011;12780;45.502;9.146;2023-04-01T03:33:53;9.10;;;5.63;;
24644;SDS011;12780;45.502;9.146;2023-04-01T03:36:18;9.45;;;5.47;;
24644;SDS011;12780;45.502;9.146;2023-04-01T03:38:44;8.82;;;4.72;;
24644;SDS011;12780;45.502;9.146;2023-04-01T03:41:14;8.45;;;4.72;;
24644;SDS011;12780;45.502;9.146;2023-04-01T03:43:40;8.73;;;4.80;;
24644;SDS011;12780;45.502;9.146;2023-04-01T03:46:06;10.45;;;5.25;;
24644;SDS011;12780;45.502;9.146;2023-04-01T03:48:32;11.80;;;5.28;;
24644;SDS011;12780;45.502;9.146;2023-04-01T03:50:57;10.18;;;5.32;;
24644;SDS011;12780;45.502;9.146;2023-04-01T03:53:23;8.48;;;4.88;;
24644;SDS011;12780;45.502;9.146;2023-04-01T03:55:48;8.55;;;4.80;;
24644;SDS011;12780;45.502;9.146;2023-04-01T03:58:16;9.73;;;4.80;;
24644;SDS011;12780;45.502;9.146;2023-04-01T04:00:41;12.95;;;4.40;;
24644;SDS011;12780;45.502;9.146;2023-04-01T04:03:07;11.40;;;4.22;;
24644;SDS011;12780;45.502;9.146;2023-04-01T04:05:32;8.85;;;5.40;;
24644;SDS011;12780;45.502;9.146;2023-04-01T04:07:58;8.85;;;4.88;;
24644;SDS011;12780;45.502;9.146;2023-04-01T04:10:23;7.85;;;4.55;;
24644;SDS011;12780;45.502;9.146;2023-04-01T04:12:50;8.68;;;4.57;;
24644;SDS011;12780;45.502;9.146;2023-04-01T04:15:16;14.05;;;4.50;;
24644;SDS011;12780;45.502;9.146;2023-04-01T04:17:42;8.23;;;4.70;;
24644;SDS011;12780;45.502;9.146;2023-04-01T04:20:09;10.98;;;4.75;;
24644;SDS011;12780;45.502;9.146;2023-04-01T04:22:35;7.57;;;4.30;;
24644;SDS011;12780;45.502;9.146;2023-04-01T04:25:01;8.20;;;4.35;;
24644;SDS011;12780;45.502;9.146;2023-04-01T04:27:26;7.47;;;4.22;;
24644;SDS011;12780;45.502;9.146;2023-04-01T04:29:52;8.43;;;4.53;;
24644;SDS011;12780;45.502;9.146;2023-04-01T04:32:17;7.55;;;4.05;;
24644;SDS011;12780;45.502;9.146;2023-04-01T04:34:43;8.38;;;4.60;;
24644;SDS011;12780;45.502;9.146;2023-04-01T04:37:08;11.80;;;4.35;;
24644;SDS011;12780;45.502;9.146;2023-04-01T04:39:34;10.23;;;5.07;;
24644;SDS011;12780;45.502;9.146;2023-04-01T04:42:00;8.43;;;4.32;;
24644;SDS011;12780;45.502;9.146;2023-04-01T04:44:25;7.93;;;4.80;;
24644;SDS011;12780;45.502;9.146;2023-04-01T04:46:51;12.48;;;5.13;;
24644;SDS011;12780;45.502;9.146;2023-04-01T04:49:16;7.22;;;4.55;;
24644;SDS011;12780;45.502;9.146;2023-04-01T04:51:42;13.55;;;5.07;;
24644;SDS011;12780;45.502;9.146;2023-04-01T04:54:08;7.70;;;4.60;;
24644;SDS011;12780;45.502;9.146;2023-04-01T04:56:33;11.05;;;4.50;;
24644;SDS011;12780;45.502;9.146;2023-04-01T04:59:00;9.07;;;4.55;;
24644;SDS011;12780;45.502;9.146;2023-04-01T05:01:26;9.75;;;4.55;;
24644;SDS011;12780;45.502;9.146;2023-04-01T05:03:52;9.00;;;4.53;;
24644;SDS011;12780;45.502;9.146;2023-04-01T05:06:17;11.77;;;4.82;;
24644;SDS011;12780;45.502;9.146;2023-04-01T05:08:45;8.73;;;4.63;;
24644;SDS011;12780;45.502;9.146;2023-04-01T05:11:14;9.10;;;4.85;;
24644;SDS011;12780;45.502;9.146;2023-04-01T05:13:42;7.53;;;3.90;;
24644;SDS011;12780;45.502;9.146;2023-04-01T05:16:12;14.40;;;4.90;;
24644;SDS011;12780;45.502;9.146;2023-04-01T05:18:39;11.05;;;4.53;;
24644;SDS011;12780;45.502;9.146;2023-04-01T05:21:06;16.77;;;5.00;;
24644;SDS011;12780;45.502;9.146;2023-04-01T05:23:33;12.05;;;4.35;;
24644;SDS011;12780;45.502;9.146;2023-04-01T05:25:59;11.60;;;4.30;;
24644;SDS011;12780;45.502;9.146;2023-04-01T05:28:32;14.85;;;4.47;;
24644;SDS011;12780;45.502;9.146;2023-04-01T05:30:58;8.27;;;4.38;;
24644;SDS011;12780;45.502;9.146;2023-04-01T05:33:25;7.25;;;4.10;;
24644;SDS011;12780;45.502;9.146;2023-04-01T05:35:51;8.35;;;3.55;;
24644;SDS011;12780;45.502;9.146;2023-04-01T05:38:17;8.50;;;3.55;;
24644;SDS011;12780;45.502;9.146;2023-04-01T05:40:42;6.55;;;3.20;;
24644;SDS011;12780;45.502;9.146;2023-04-01T05:43:08;5.25;;;2.88;;
24644;SDS011;12780;45.502;9.146;2023-04-01T05:45:33;7.30;;;2.63;;
24644;SDS011;12780;45.502;9.146;2023-04-01T05:47:59;5.75;;;2.65;;
24644;SDS011;12780;45.502;9.146;2023-04-01T05:50:25;7.70;;;2.97;;
24644;SDS011;12780;45.502;9.146;2023-04-01T05:52:51;10.15;;;2.85;;
24644;SDS011;12780;45.502;9.146;2023-04-01T05:55:16;8.50;;;3.00;;
24644;SDS011;12780;45.502;9.146;2023-04-01T05:57:43;6.05;;;2.75;;
24644;SDS011;12780;45.502;9.146;2023-04-01T06:00:11;5.30;;;2.88;;
24644;SDS011;12780;45.502;9.146;2023-04-01T06:02:37;6.38;;;2.65;;
24644;SDS011;12780;45.502;9.146;2023-04-01T06:05:14;5.10;;;2.75;;
24644;SDS011;12780;45.502;9.146;2023-04-01T06:07:46;4.80;;;2.53;;
24644;SDS011;12780;45.502;9.146;2023-04-01T06:10:12;4.75;;;2.50;;
24644;SDS011;12780;45.502;9.146;2023-04-01T06:12:55;7.43;;;2.70;;
24644;SDS011;12780;45.502;9.146;2023-04-01T06:15:30;6.45;;;2.85;;
24644;SDS011;12780;45.502;9.146;2023-04-01T06:26:05;7.30;;;2.22;;
24644;SDS011;12780;45.502;9.146;2023-04-01T06:29:10;4.57;;;2.38;;
24644;SDS011;12780;45.502;9.146;2023-04-01T06:39:33;6.10;;;2.00;;
24644;SDS011;12780;45.502;9.146;2023-04-01T06:44:53;3.83;;;2.35;;
24644;SDS011;12780;45.502;9.146;2023-04-01T06:47:29;3.92;;;2.20;;
24644;SDS011;12780;45.502;9.146;2023-04-01T06:55:27;2.78;;;1.55;;
24644;SDS011;12780;45.502;9.146;2023-04-01T06:57:57;4.70;;;2.05;;
24644;SDS011;12780;45.502;9.146;2023-04-01T07:02:59;3.08;;;1.70;;
24644;SDS011;12780;45.502;9.146;2023-04-01T07:05:43;5.43;;;1.70;;
24644;SDS011;12780;45.502;9.146;2023-04-01T07:08:10;5.35;;;1.90;;
24644;SDS011;12780;45.502;9.146;2023-04-01T07:10:47;2.88;;;1.67;;
24644;SDS011;12780;45.502;9.146;2023-04-01T07:16:23;7.40;;;1.70;;
24644;SDS011;12780;45.502;9.146;2023-04-01T07:19:22;5.07;;;1.70;;
24644;SDS011;12780;45.502;9.146;2023-04-01T07:22:21;6.32;;;1.70;;
24644;SDS011;12780;45.502;9.146;2023-04-01T07:24:56;5.03;;;2.45;;
24644;SDS011;12780;45.502;9.146;2023-04-01T07:27:26;2.72;;;1.50;;
24644;SDS011;12780;45.502;9.146;2023-04-01T07:29:51;7.93;;;3.90;;
24644;SDS011;12780;45.502;9.146;2023-04-01T07:32:40;3.13;;;1.70;;
24644;SDS011;12780;45.502;9.146;2023-04-01T07:38:11;8.35;;;2.35;;
24644;SDS011;12780;45.502;9.146;2023-04-01T07:40:41;6.70;;;3.25;;
24644;SDS011;12780;45.502;9.146;2023-04-01T07:43:52;5.93;;;3.13;;
24644;SDS011;12780;45.502;9.146;2023-04-01T07:46:31;5.72;;;3.15;;
24644;SDS011;12780;45.502;9.146;2023-04-01T07:49:11;11.27;;;3.42;;
24644;SDS011;12780;45.502;9.146;2023-04-01T07:52:16;14.52;;;3.50;;
24644;SDS011;12780;45.502;9.146;2023-04-01T07:54:39;9.88;;;3.10;;
24644;SDS011;12780;45.502;9.146;2023-04-01T07:57:48;7.85;;;2.97;;
24644;SDS011;12780;45.502;9.146;2023-04-01T08:00:22;7.97;;;2.63;;
24644;SDS011;12780;45.502;9.146;2023-04-01T08:02:58;7.38;;;3.00;;
24644;SDS011;12780;45.502;9.146;2023-04-01T08:05:33;3.97;;;2.28;;
24644;SDS011;12780;45.502;9.146;2023-04-01T08:08:19;2.80;;;1.80;;
24644;SDS011;12780;45.502;9.146;2023-04-01T08:11:39;10.10;;;1.63;;
24644;SDS011;12780;45.502;9.146;2023-04-01T08:13:55;3.47;;;1.33;;
24644;SDS011;12780;45.502;9.146;2023-04-01T08:16:37;9.10;;;1.80;;
24644;SDS011;12780;45.502;9.146;2023-04-01T08:22:01;3.85;;;1.65;;
24644;SDS011;12780;45.502;9.146;2023-04-01T08:24:40;3.28;;;1.80;;
24644;SDS011;12780;45.502;9.146;2023-04-01T08:27:21;3.58;;;1.75;;
24644;SDS011;12780;45.502;9.146;2023-04-01T08:30:02;5.15;;;1.80;;
24644;SDS011;12780;45.502;9.146;2023-04-01T08:32:40;3.05;;;1.58;;
24644;SDS011;12780;45.502;9.146;2023-04-01T08:35:15;4.38;;;1.55;;
24644;SDS011;12780;45.502;9.146;2023-04-01T08:37:46;8.15;;;1.58;;
24644;SDS011;12780;45.502;9.146;2023-04-01T08:46:19;4.78;;;1.55;;
24644;SDS011;12780;45.502;9.146;2023-04-01T08:49:06;5.05;;;1.45;;
24644;SDS011;12780;45.502;9.146;2023-04-01T08:54:46;4.07;;;1.88;;
24644;SDS011;12780;45.502;9.146;2023-04-01T09:00:53;2.85;;;1.52;;
24644;SDS011;12780;45.502;9.146;2023-04-01T09:08:57;7.47;;;2.47;;
24644;SDS011;12780;45.502;9.146;2023-04-01T09:14:30;7.88;;;2.63;;
24644;SDS011;12780;45.502;9.146;2023-04-01T09:17:32;4.78;;;3.03;;
24644;SDS011;12780;45.502;9.146;2023-04-01T09:20:23;9.00;;;2.80;;
24644;SDS011;12780;45.502;9.146;2023-04-01T09:23:02;3.50;;;2.47;;
24644;SDS011;12780;45.502;9.146;2023-04-01T09:37:36;7.07;;;2.38;;
24644;SDS011;12780;45.502;9.146;2023-04-01T09:43:46;6.90;;;2.83;;
24644;SDS011;12780;45.502;9.146;2023-04-01T09:51:53;6.07;;;2.03;;
24644;SDS011;12780;45.502;9.146;2023-04-01T09:54:50;4.32;;;2.08;;
24644;SDS011;12780;45.502;9.146;2023-04-01T10:00:10;4.50;;;2.10;;
24644;SDS011;12780;45.502;9.146;2023-04-01T10:09:09;10.68;;;2.20;;
24644;SDS011;12780;45.502;9.146;2023-04-01T10:17:03;6.70;;;2.80;;
24644;SDS011;12780;45.502;9.146;2023-04-01T10:22:55;4.15;;;2.40;;
24644;SDS011;12780;45.502;9.146;2023-04-01T11:08:45;4.65;;;1.50;;
24644;SDS011;12780;45.502;9.146;2023-04-01T11:14:43;3.03;;;1.33;;
24644;SDS011;12780;45.502;9.146;2023-04-01T11:37:07;5.25;;;1.20;;
24644;SDS011;12780;45.502;9.146;2023-04-01T11:51:02;4.72;;;0.90;;
24644;SDS011;12780;45.502;9.146;2023-04-01T11:57:13;6.82;;;1.10;;
24644;SDS011;12780;45.502;9.146;2023-04-01T12:00:02;3.75;;;1.00;;
24644;SDS011;12780;45.502;9.146;2023-04-01T12:06:02;1.50;;;0.90;;
24644;SDS011;12780;45.502;9.146;2023-04-01T12:08:43;2.75;;;0.80;;
24644;SDS011;12780;45.502;9.146;2023-04-01T12:17:02;0.73;;;0.70;;
24644;SDS011;12780;45.502;9.146;2023-04-01T12:22:45;2.30;;;0.50;;
24644;SDS011;12780;45.502;9.146;2023-04-01T12:25:38;2.13;;;0.60;;
24644;SDS011;12780;45.502;9.146;2023-04-01T12:34:48;1.50;;;0.90;;
24644;SDS011;12780;45.502;9.146;2023-04-01T12:37:18;0.45;;;0.38;;
24644;SDS011;12780;45.502;9.146;2023-04-01T12:53:35;2.60;;;0.30;;
24644;SDS011;12780;45.502;9.146;2023-04-01T13:01:59;1.83;;;0.90;;
24644;SDS011;12780;45.502;9.146;2023-04-01T13:04:43;1.27;;;0.70;;
24644;SDS011;12780;45.502;9.146;2023-04-01T13:07:48;1.65;;;0.30;;
24644;SDS011;12780;45.502;9.146;2023-04-01T13:10:38;0.32;;;0.30;;
24644;SDS011;12780;45.502;9.146;2023-04-01T13:14:16;0.75;;;0.45;;
24644;SDS011;12780;45.502;9.146;2023-04-01T13:16:11;0.65;;;0.40;;
24644;SDS011;12780;45.502;9.146;2023-04-01T13:24:17;0.38;;;0.30;;
24644;SDS011;12780;45.502;9.146;2023-04-01T13:29:21;0.93;;;0.32;;
24644;SDS011;12780;45.502;9.146;2023-04-01T13:32:18;1.90;;;0.40;;
24644;SDS011;12780;45.502;9.146;2023-04-01T13:37:40;0.65;;;0.30;;
24644;SDS011;12780;45.502;9.146;2023-04-01T13:42:54;0.82;;;0.50;;
24644;SDS011;12780;45.502;9.146;2023-04-01T13:56:42;5.50;;;2.65;;
24644;SDS011;12780;45.502;9.146;2023-04-01T13:59:25;0.90;;;0.60;;
24644;SDS011;12780;45.502;9.146;2023-04-01T14:05:01;0.20;;;0.20;;
24644;SDS011;12780;45.502;9.146;2023-04-01T14:07:38;4.22;;;0.30;;
24644;SDS011;12780;45.502;9.146;2023-04-01T14:16:14;0.55;;;0.40;;
24644;SDS011;12780;45.502;9.146;2023-04-01T14:18:47;3.65;;;0.30;;
24644;SDS011;12780;45.502;9.146;2023-04-01T14:21:38;0.30;;;0.30;;
24644;SDS011;12780;45.502;9.146;2023-04-01T14:32:03;0.30;;;0.20;;
24644;SDS011;12780;45.502;9.146;2023-04-01T14:43:55;2.92;;;0.68;;
24644;SDS011;12780;45.502;9.146;2023-04-01T14:46:40;0.50;;;0.40;;
24644;SDS011;12780;45.502;9.146;2023-04-01T14:49:34;0.93;;;0.50;;
24644;SDS011;12780;45.502;9.146;2023-04-01T14:52:27;1.20;;;0.40;;
24644;SDS011;12780;45.502;9.146;2023-04-01T14:54:56;1.92;;;0.20;;
24644;SDS011;12780;45.502;9.146;2023-04-01T14:57:30;4.68;;;0.30;;
24644;SDS011;12780;45.502;9.146;2023-04-01T15:05:24;3.03;;;0.30;;
24644;SDS011;12780;45.502;9.146;2023-04-01T15:13:43;0.10;;;0.10;;
24644;SDS011;12780;45.502;9.146;2023-04-01T15:19:38;0.90;;;0.32;;
24644;SDS011;12780;45.502;9.146;2023-04-01T15:39:10;0.60;;;0.40;;
24644;SDS011;12780;45.502;9.146;2023-04-01T15:42:04;0.30;;;0.30;;
24644;SDS011;12780;45.502;9.146;2023-04-01T15:44:46;0.50;;;0.32;;
24644;SDS011;12780;45.502;9.146;2023-04-01T15:47:35;0.68;;;0.38;;
24644;SDS011;12780;45.502;9.146;2023-04-01T15:53:20;1.65;;;1.00;;
24644;SDS011;12780;45.502;9.146;2023-04-01T15:56:09;3.03;;;0.45;;
24644;SDS011;12780;45.502;9.146;2023-04-01T16:26:53;0.45;;;0.35;;
24644;SDS011;12780;45.502;9.146;2023-04-01T16:32:17;0.65;;;0.30;;
24644;SDS011;12780;45.502;9.146;2023-04-01T16:35:03;0.60;;;0.40;;
24644;SDS011;12780;45.502;9.146;2023-04-01T16:40:43;2.92;;;0.60;;
24644;SDS011;12780;45.502;9.146;2023-04-01T16:43:30;1.35;;;0.50;;
24644;SDS011;12780;45.502;9.146;2023-04-01T16:46:12;0.80;;;0.50;;
24644;SDS011;12780;45.502;9.146;2023-04-01T16:54:53;0.80;;;0.50;;
24644;SDS011;12780;45.502;9.146;2023-04-01T16:57:23;0.55;;;0.32;;
24644;SDS011;12780;45.502;9.146;2023-04-01T17:04:07;2.45;;;0.43;;
24644;SDS011;12780;45.502;9.146;2023-04-01T17:14:28;2.55;;;0.70;;
24644;SDS011;12780;45.502;9.146;2023-04-01T17:30:33;1.35;;;0.80;;
24644;SDS011;12780;45.502;9.146;2023-04-01T17:35:58;6.15;;;1.05;;
24644;SDS011;12780;45.502;9.146;2023-04-01T17:47:43;2.33;;;1.10;;
24644;SDS011;12780;45.502;9.146;2023-04-01T17:50:24;3.65;;;1.60;;
24644;SDS011;12780;45.502;9.146;2023-04-01T17:58:46;3.60;;;1.67;;
24644;SDS011;12780;45.502;9.146;2023-04-01T18:12:21;8.60;;;2.33;;
24644;SDS011;12780;45.502;9.146;2023-04-01T18:18:07;6.38;;;2.42;;
24644;SDS011;12780;45.502;9.146;2023-04-01T18:20:54;8.57;;;2.53;;
24644;SDS011;12780;45.502;9.146;2023-04-01T18:23:44;5.93;;;2.75;;
24644;SDS011;12780;45.502;9.146;2023-04-01T18:28:52;11.73;;;2.78;;
24644;SDS011;12780;45.502;9.146;2023-04-01T18:31:24;4.00;;;2.08;;
24644;SDS011;12780;45.502;9.146;2023-04-01T18:36:56;6.32;;;2.17;;
24644;SDS011;12780;45.502;9.146;2023-04-01T18:39:40;4.05;;;1.80;;
24644;SDS011;12780;45.502;9.146;2023-04-01T18:51:01;7.90;;;2.70;;
24644;SDS011;12780;45.502;9.146;2023-04-01T18:53:37;10.13;;;3.65;;
24644;SDS011;12780;45.502;9.146;2023-04-01T19:10:12;13.43;;;3.28;;
24644;SDS011;12780;45.502;9.146;2023-04-01T19:21:18;7.82;;;2.90;;
24644;SDS011;12780;45.502;9.146;2023-04-01T19:26:48;13.13;;;3.83;;
24644;SDS011;12780;45.502;9.146;2023-04-01T19:32:14;8.00;;;2.65;;
24644;SDS011;12780;45.502;9.146;2023-04-01T19:34:52;9.02;;;3.00;;
24644;SDS011;12780;45.502;9.146;2023-04-01T19:37:45;7.78;;;3.13;;
24644;SDS011;12780;45.502;9.146;2023-04-01T19:42:48;6.63;;;2.30;;
24644;SDS011;12780;45.502;9.146;2023-04-01T19:48:33;7.85;;;3.13;;
24644;SDS011;12780;45.502;9.146;2023-04-01T19:51:24;6.93;;;3.15;;
24644;SDS011;12780;45.502;9.146;2023-04-01T20:00:02;9.50;;;4.03;;
24644;SDS011;12780;45.502;9.146;2023-04-01T20:05:25;5.10;;;2.72;;
24644;SDS011;12780;45.502;9.146;2023-04-01T20:10:44;7.03;;;3.17;;
24644;SDS011;12780;45.502;9.146;2023-04-01T20:16:18;4.40;;;2.53;;
24644;SDS011;12780;45.502;9.146;2023-04-01T20:18:54;5.70;;;2.90;;
24644;SDS011;12780;45.502;9.146;2023-04-01T20:21:30;8.30;;;3.20;;
24644;SDS011;12780;45.502;9.146;2023-04-01T20:26:51;12.25;;;3.25;;
24644;SDS011;12780;45.502;9.146;2023-04-01T20:32:44;8.38;;;2.83;;
24644;SDS011;12780;45.502;9.146;2023-04-01T20:39:13;4.38;;;2.10;;
24644;SDS011;12780;45.502;9.146;2023-04-01T20:41:53;4.28;;;2.28;;
24644;SDS011;12780;45.502;9.146;2023-04-01T20:44:57;3.83;;;2.10;;
24644;SDS011;12780;45.502;9.146;2023-04-01T20:47:48;9.18;;;2.30;;
24644;SDS011;12780;45.502;9.146;2023-04-01T20:50:29;7.13;;;2.45;;
24644;SDS011;12780;45.502;9.146;2023-04-01T20:53:11;4.90;;;2.20;;
24644;SDS011;12780;45.502;9.146;2023-04-01T20:55:58;6.45;;;2.03;;
24644;SDS011;12780;45.502;9.146;2023-04-01T20:58:52;3.80;;;2.00;;
24644;SDS011;12780;45.502;9.146;2023-04-01T21:10:17;4.03;;;1.85;;
24644;SDS011;12780;45.502;9.146;2023-04-01T21:13:12;4.47;;;2.08;;
24644;SDS011;12780;45.502;9.146;2023-04-01T21:18:29;3.95;;;2.10;;
24644;SDS011;12780;45.502;9.146;2023-04-01T21:22:13;3.90;;;1.90;;
24644;SDS011;12780;45.502;9.146;2023-04-01T21:24:23;4.05;;;2.17;;
24644;SDS011;12780;45.502;9.146;2023-04-01T21:27:01;5.80;;;2.63;;
24644;SDS011;12780;45.502;9.146;2023-04-01T21:32:37;4.97;;;2.60;;
24644;SDS011;12780;45.502;9.146;2023-04-01T21:35:33;9.75;;;2.65;;
24644;SDS011;12780;45.502;9.146;2023-04-01T21:38:16;7.22;;;2.53;;
24644;SDS011;12780;45.502;9.146;2023-04-01T21:40:59;4.43;;;2.20;;
24644;SDS011;12780;45.502;9.146;2023-04-01T21:43:51;4.88;;;2.00;;
24644;SDS011;12780;45.502;9.146;2023-04-01T22:05:21;6.43;;;2.70;;
24644;SDS011;12780;45.502;9.146;2023-04-01T22:08:24;11.48;;;2.67;;
24644;SDS011;12780;45.502;9.146;2023-04-01T22:16:20;8.52;;;3.13;;
24644;SDS011;12780;45.502;9.146;2023-04-01T22:19:00;12.48;;;3.45;;
24644;SDS011;12780;45.502;9.146;2023-04-01T22:21:48;7.22;;;3.20;;
24644;SDS011;12780;45.502;9.146;2023-04-01T22:24:29;6.72;;;3.17;;
24644;SDS011;12780;45.502;9.146;2023-04-01T22:32:47;8.40;;;3.28;;
24644;SDS011;12780;45.502;9.146;2023-04-01T22:38:08;6.82;;;2.90;;
24644;SDS011;12780;45.502;9.146;2023-04-01T22:41:01;7.07;;;3.20;;
24644;SDS011;12780;45.502;9.146;2023-04-01T22:43:39;7.13;;;2.92;;
24644;SDS011;12780;45.502;9.146;2023-04-01T22:49:05;10.23;;;3.08;;
24644;SDS011;12780;45.502;9.146;2023-04-01T22:51:51;6.30;;;2.97;;
24644;SDS011;12780;45.502;9.146;2023-04-01T22:57:38;7.32;;;2.90;;
24644;SDS011;12780;45.502;9.146;2023-04-01T22:59:45;9.20;;;3.38;;
24644;SDS011;12780;45.502;9.146;2023-04-01T23:04:47;8.93;;;3.75;;
24644;SDS011;12780;45.502;9.146;2023-04-01T23:10:23;11.40;;;4.03;;
24644;SDS011;12780;45.502;9.146;2023-04-01T23:12:53;7.65;;;3.50;;
24644;SDS011;12780;45.502;9.146;2023-04-01T23:15:22;11.20;;;4.40;;
24644;SDS011;12780;45.502;9.146;2023-04-01T23:18:03;6.57;;;3.50;;
24644;SDS011;12780;45.502;9.146;2023-04-01T23:26:15;7.65;;;2.80;;
24644;SDS011;12780;45.502;9.146;2023-04-01T23:28:53;7.55;;;3.03;;
24644;SDS011;12780;45.502;9.146;2023-04-01T23:31:24;6.43;;;2.63;;
24644;SDS011;12780;45.502;9.146;2023-04-01T23:33:58;11.07;;;2.40;;
24644;SDS011;12780;45.502;9.146;2023-04-01T23:36:25;9.50;;;2.55;;
24644;SDS011;12780;45.502;9.146;2023-04-01T23:38:52;5.85;;;2.42;;
24644;SDS011;12780;45.502;9.146;2023-04-01T23:41:23;6.00;;;2.13;;
24644;SDS011;12780;45.502;9.146;2023-04-01T23:43:55;9.68;;;3.05;;
24644;SDS011;12780;45.502;9.146;2023-04-01T23:46:30;7.13;;;2.50;;
24644;SDS011;12780;45.502;9.146;2023-04-01T23:48:58;3.72;;;2.38;;
24644;SDS011;12780;45.502;9.146;2023-04-01T23:51:26;7.05;;;2.72;;
24644;SDS011;12780;45.502;9.146;2023-04-01T23:56:45;5.47;;;2.30;;
